createdAt,value
2023-01-29T00:01:38.293Z,-1.26
2023-01-29T00:04:05.299Z,-1.06
2023-01-29T00:06:32.400Z,-1.11
2023-01-29T00:08:59.226Z,-1.27
2023-01-29T00:11:26.049Z,-0.97
2023-01-29T00:13:53.334Z,-0.93
2023-01-29T00:16:21.300Z,-0.98
2023-01-29T00:18:47.957Z,-1.15
2023-01-29T00:21:19.793Z,-0.98
2023-01-29T00:23:46.690Z,-0.99
2023-01-29T00:26:13.995Z,-1.00
2023-01-29T00:28:41.199Z,-1.06
2023-01-29T00:31:21.408Z,-1.26
2023-01-29T00:33:49.516Z,-1.26
2023-01-29T00:36:18.306Z,-1.10
2023-01-29T00:38:45.071Z,-1.25
2023-01-29T00:41:34.854Z,-1.50
2023-01-29T00:44:20.853Z,-1.24
2023-01-29T00:46:47.525Z,-1.34
2023-01-29T00:49:14.186Z,-1.27
2023-01-29T00:51:41.191Z,-1.04
2023-01-29T00:54:07.885Z,-1.21
2023-01-29T00:56:36.786Z,-1.28
2023-01-29T00:59:04.938Z,-1.22
2023-01-29T01:01:50.209Z,-1.09
2023-01-29T01:04:16.922Z,-1.16
2023-01-29T01:06:43.870Z,-1.29
2023-01-29T01:09:30.058Z,-1.25
2023-01-29T01:11:56.742Z,-1.25
2023-01-29T01:14:23.391Z,-1.06
2023-01-29T01:16:50.238Z,-1.22
2023-01-29T01:19:17.357Z,-1.04
2023-01-29T01:21:47.157Z,-1.04
2023-01-29T01:24:14.488Z,-1.38
2023-01-29T01:26:41.209Z,-1.29
2023-01-29T01:29:07.917Z,-1.16
2023-01-29T01:31:34.656Z,-1.11
2023-01-29T01:34:01.447Z,-1.03
2023-01-29T01:36:28.139Z,-1.31
2023-01-29T01:38:55.060Z,-1.09
2023-01-29T01:41:24.096Z,-0.97
2023-01-29T01:43:55.869Z,-0.99
2023-01-29T01:46:23.433Z,-0.95
2023-01-29T01:48:57.058Z,-0.98
2023-01-29T01:51:26.388Z,-0.97
2023-01-29T01:54:03.775Z,-1.04
2023-01-29T01:56:40.922Z,-1.11
2023-01-29T01:59:11.815Z,-1.07
2023-01-29T02:01:42.954Z,-1.16
2023-01-29T02:04:32.671Z,-1.25
2023-01-29T02:07:20.845Z,-1.22
2023-01-29T02:10:15.570Z,-1.66
2023-01-29T02:12:44.228Z,-1.22
2023-01-29T02:15:21.052Z,-1.22
2023-01-29T02:17:48.446Z,-1.26
2023-01-29T02:20:26.503Z,-1.17
2023-01-29T02:23:16.425Z,-1.10
2023-01-29T02:25:43.007Z,-1.13
2023-01-29T02:28:18.773Z,-1.22
2023-01-29T02:30:59.641Z,-1.20
2023-01-29T02:33:26.333Z,-1.39
2023-01-29T02:36:31.638Z,-1.50
2023-01-29T02:39:31.341Z,-1.75
2023-01-29T02:42:16.795Z,-1.97
2023-01-29T02:45:01.178Z,-1.87
2023-01-29T02:47:40.133Z,-1.97
2023-01-29T02:50:46.430Z,-2.03
2023-01-29T02:53:19.369Z,-2.13
2023-01-29T02:55:54.970Z,-2.09
2023-01-29T02:58:33.252Z,-1.79
2023-01-29T03:01:23.664Z,-1.83
2023-01-29T03:03:55.757Z,-1.71
2023-01-29T03:06:32.744Z,-1.62
2023-01-29T03:09:04.415Z,-1.85
2023-01-29T03:11:45.337Z,-1.73
2023-01-29T03:14:17.134Z,-1.76
2023-01-29T03:16:51.157Z,-1.73
2023-01-29T03:19:31.918Z,-1.61
2023-01-29T03:22:00.815Z,-1.50
2023-01-29T03:25:02.406Z,-1.37
2023-01-29T03:27:55.322Z,-1.55
2023-01-29T03:30:44.286Z,-1.46
2023-01-29T03:33:14.022Z,-1.21
2023-01-29T03:35:50.142Z,-1.22
2023-01-29T03:38:18.451Z,-1.16
2023-01-29T03:40:58.350Z,-1.25
2023-01-29T03:43:40.459Z,-1.33
2023-01-29T03:46:29.880Z,-1.18
2023-01-29T03:49:30.314Z,-1.09
2023-01-29T03:52:09.748Z,-1.16
2023-01-29T03:55:06.756Z,-1.31
2023-01-29T03:58:00.979Z,-1.26
2023-01-29T04:00:36.175Z,-1.14
2023-01-29T04:03:21.794Z,-1.17
2023-01-29T04:06:12.528Z,-1.22
2023-01-29T04:08:58.902Z,-1.21
2023-01-29T04:11:29.096Z,-1.10
2023-01-29T04:13:57.480Z,-1.03
2023-01-29T04:16:29.091Z,-1.00
2023-01-29T04:18:56.832Z,-0.99
2023-01-29T04:21:25.122Z,-1.02
2023-01-29T04:23:51.913Z,-0.98
2023-01-29T04:26:29.400Z,-0.98
2023-01-29T04:29:33.402Z,-0.92
2023-01-29T04:32:18.971Z,-1.16
2023-01-29T04:35:17.679Z,-1.37
2023-01-29T04:38:01.571Z,-1.49
2023-01-29T04:41:19.390Z,-1.65
2023-01-29T04:44:06.414Z,-1.65
2023-01-29T04:46:54.851Z,-1.89
2023-01-29T04:49:30.537Z,-1.91
2023-01-29T04:52:09.042Z,-1.72
2023-01-29T04:54:48.580Z,-1.62
2023-01-29T04:57:25.485Z,-1.56
2023-01-29T05:00:23.230Z,-1.59
2023-01-29T05:02:51.103Z,-1.46
2023-01-29T05:05:20.305Z,-1.48
2023-01-29T05:07:48.304Z,-1.43
2023-01-29T05:10:20.143Z,-1.43
2023-01-29T05:12:52.999Z,-1.48
2023-01-29T05:15:26.615Z,-1.54
2023-01-29T05:17:54.657Z,-1.55
2023-01-29T05:20:21.646Z,-1.50
2023-01-29T05:22:49.337Z,-1.62
2023-01-29T05:25:26.123Z,-1.49
2023-01-29T05:28:16.395Z,-1.45
2023-01-29T05:30:49.429Z,-1.44
2023-01-29T05:33:27.934Z,-1.34
2023-01-29T05:35:55.979Z,-1.57
2023-01-29T05:38:23.846Z,-1.39
2023-01-29T05:40:50.953Z,-1.34
2023-01-29T05:43:25.459Z,-1.54
2023-01-29T05:45:59.973Z,-1.58
2023-01-29T05:48:28.980Z,-1.63
2023-01-29T05:51:04.701Z,-1.69
2023-01-29T05:53:32.563Z,-1.83
2023-01-29T05:56:02.434Z,-1.66
2023-01-29T05:58:31.925Z,-1.62
2023-01-29T06:00:58.814Z,-1.74
2023-01-29T06:03:25.496Z,-1.64
2023-01-29T06:05:52.257Z,-1.46
2023-01-29T06:08:18.951Z,-1.36
2023-01-29T06:10:45.673Z,-1.42
2023-01-29T06:13:12.386Z,-1.57
2023-01-29T06:15:40.615Z,-1.66
2023-01-29T06:18:07.334Z,-1.67
2023-01-29T06:20:34.039Z,-1.47
2023-01-29T06:23:00.904Z,-1.55
2023-01-29T06:25:27.615Z,-1.43
2023-01-29T06:27:54.287Z,-1.60
2023-01-29T06:30:21.123Z,-1.46
2023-01-29T06:32:48.004Z,-1.39
2023-01-29T06:35:14.704Z,-1.45
2023-01-29T06:37:41.430Z,-1.62
2023-01-29T06:40:08.943Z,-1.66
2023-01-29T06:42:35.894Z,-1.51
2023-01-29T06:45:02.594Z,-1.41
2023-01-29T06:47:30.290Z,-1.30
2023-01-29T06:49:56.964Z,-1.17
2023-01-29T06:52:25.532Z,-0.99
2023-01-29T06:54:52.218Z,-1.17
2023-01-29T06:57:18.975Z,-1.14
2023-01-29T06:59:45.644Z,-1.11
2023-01-29T07:02:16.029Z,-1.07
2023-01-29T07:04:42.972Z,-1.05
2023-01-29T07:07:15.804Z,-0.90
2023-01-29T07:09:43.117Z,-0.99
2023-01-29T07:12:10.610Z,-0.71
2023-01-29T07:14:37.531Z,-0.48
2023-01-29T07:17:04.510Z,-0.22
2023-01-29T07:19:31.405Z,0.01
2023-01-29T07:21:58.325Z,0.13
2023-01-29T07:24:25.093Z,0.43
2023-01-29T07:26:51.868Z,-0.02
2023-01-29T07:29:20.865Z,0.29
2023-01-29T07:31:47.900Z,0.11
2023-01-29T07:34:14.844Z,0.21
2023-01-29T07:36:41.727Z,0.50
2023-01-29T07:39:08.444Z,0.29
2023-01-29T07:41:35.300Z,0.78
2023-01-29T07:44:02.042Z,0.78
2023-01-29T07:46:28.741Z,0.66
2023-01-29T07:48:55.520Z,0.98
2023-01-29T07:51:22.255Z,0.99
2023-01-29T07:53:50.096Z,0.99
2023-01-29T07:56:16.800Z,0.92
2023-01-29T07:58:43.566Z,0.78
2023-01-29T08:01:10.359Z,0.92
2023-01-29T08:03:37.695Z,1.22
2023-01-29T08:06:04.866Z,1.59
2023-01-29T08:08:31.628Z,2.32
2023-01-29T08:11:01.364Z,2.93
2023-01-29T08:13:28.408Z,3.38
2023-01-29T08:16:00.122Z,3.95
2023-01-29T08:18:27.024Z,4.46
2023-01-29T08:20:54.508Z,4.81
2023-01-29T08:23:21.306Z,4.75
2023-01-29T08:25:48.247Z,4.43
2023-01-29T08:28:16.436Z,4.89
2023-01-29T08:30:44.786Z,5.21
2023-01-29T08:33:13.716Z,4.46
2023-01-29T08:35:41.328Z,4.61
2023-01-29T08:38:09.737Z,4.93
2023-01-29T08:40:36.611Z,5.43
2023-01-29T08:43:07.999Z,5.57
2023-01-29T08:45:38.353Z,6.29
2023-01-29T08:48:05.780Z,6.40
2023-01-29T08:50:35.076Z,6.73
2023-01-29T08:53:04.699Z,7.23
2023-01-29T08:55:31.802Z,6.44
2023-01-29T08:57:58.610Z,7.28
2023-01-29T09:00:25.503Z,7.50
2023-01-29T09:02:52.730Z,6.68
2023-01-29T09:05:19.819Z,5.51
2023-01-29T09:07:46.862Z,5.03
2023-01-29T09:10:15.512Z,5.78
2023-01-29T09:12:42.986Z,6.90
2023-01-29T09:15:10.271Z,7.89
2023-01-29T09:17:38.603Z,8.85
2023-01-29T09:20:07.867Z,7.50
2023-01-29T09:22:37.143Z,8.33
2023-01-29T09:25:04.463Z,9.42
2023-01-29T09:27:31.249Z,10.94
2023-01-29T09:29:58.119Z,12.01
2023-01-29T09:32:52.110Z,12.33
2023-01-29T09:35:11.697Z,11.00
2023-01-29T09:37:38.488Z,9.05
2023-01-29T09:40:05.963Z,7.85
2023-01-29T09:42:50.365Z,6.85
2023-01-29T09:45:25.486Z,7.26
2023-01-29T09:47:53.716Z,8.07
2023-01-29T09:50:28.351Z,8.14
2023-01-29T09:53:19.880Z,8.07
2023-01-29T09:55:55.725Z,8.09
2023-01-29T09:58:29.267Z,9.43
2023-01-29T10:01:26.460Z,9.49
2023-01-29T10:04:14.963Z,9.52
2023-01-29T10:07:01.735Z,8.68
2023-01-29T10:09:43.814Z,8.07
2023-01-29T10:12:44.053Z,7.74
2023-01-29T10:15:39.005Z,8.51
2023-01-29T10:18:43.152Z,9.31
2023-01-29T10:21:24.350Z,10.90
2023-01-29T10:24:12.397Z,11.41
2023-01-29T10:26:40.743Z,11.65
2023-01-29T10:29:08.724Z,9.77
2023-01-29T10:31:40.597Z,9.92
2023-01-29T10:34:25.100Z,9.09
2023-01-29T10:36:51.852Z,8.61
2023-01-29T10:39:20.990Z,7.07
2023-01-29T10:41:54.098Z,7.91
2023-01-29T10:44:49.683Z,7.41
2023-01-29T10:48:06.484Z,7.42
2023-01-29T10:50:42.268Z,7.64
2023-01-29T10:53:24.422Z,6.68
2023-01-29T10:55:53.689Z,7.68
2023-01-29T10:58:30.440Z,7.53
2023-01-29T11:00:57.989Z,7.29
2023-01-29T11:03:33.606Z,7.54
2023-01-29T11:06:13.038Z,6.75
2023-01-29T11:08:48.862Z,6.56
2023-01-29T11:11:18.170Z,6.26
2023-01-29T11:13:55.411Z,5.41
2023-01-29T11:16:22.191Z,5.07
2023-01-29T11:18:55.170Z,4.82
2023-01-29T11:21:24.579Z,4.58
2023-01-29T11:24:06.429Z,3.91
2023-01-29T11:26:38.259Z,3.78
2023-01-29T11:29:05.122Z,3.89
2023-01-29T11:31:39.864Z,4.16
2023-01-29T11:34:19.521Z,4.09
2023-01-29T11:36:47.041Z,4.32
2023-01-29T11:39:21.496Z,3.93
2023-01-29T11:41:49.874Z,3.49
2023-01-29T11:44:53.779Z,3.73
2023-01-29T11:47:27.941Z,3.77
2023-01-29T11:50:01.220Z,3.08
2023-01-29T11:52:36.534Z,3.14
2023-01-29T11:55:29.697Z,3.34
2023-01-29T11:58:15.166Z,3.32
2023-01-29T12:00:46.730Z,3.49
2023-01-29T12:03:38.163Z,3.20
2023-01-29T12:06:12.814Z,2.68
2023-01-29T12:08:40.276Z,3.03
2023-01-29T12:11:10.450Z,3.21
2023-01-29T12:13:37.358Z,3.03
2023-01-29T12:16:29.298Z,2.98
2023-01-29T12:19:22.381Z,3.10
2023-01-29T12:21:52.651Z,3.08
2023-01-29T12:24:32.266Z,3.10
2023-01-29T12:27:20.834Z,3.17
2023-01-29T12:29:55.944Z,2.99
2023-01-29T12:32:28.972Z,2.94
2023-01-29T12:35:10.662Z,3.09
2023-01-29T12:38:01.056Z,3.06
2023-01-29T12:40:33.808Z,2.90
2023-01-29T12:43:07.308Z,2.87
2023-01-29T12:45:37.034Z,2.51
2023-01-29T12:48:10.700Z,2.75
2023-01-29T12:50:38.776Z,2.19
2023-01-29T12:53:14.524Z,2.32
2023-01-29T12:55:48.821Z,2.35
2023-01-29T12:58:25.474Z,2.56
2023-01-29T13:00:55.327Z,2.54
2023-01-29T13:03:31.609Z,2.61
2023-01-29T13:06:12.121Z,2.71
2023-01-29T13:08:45.755Z,2.39
2023-01-29T13:11:39.774Z,2.40
2023-01-29T13:14:44.811Z,2.10
2023-01-29T13:17:38.198Z,1.82
2023-01-29T13:20:32.765Z,2.39
2023-01-29T13:23:12.995Z,2.05
2023-01-29T13:25:39.881Z,1.99
2023-01-29T13:28:21.137Z,1.48
2023-01-29T13:31:07.852Z,1.67
2023-01-29T13:33:34.736Z,2.12
2023-01-29T13:36:01.513Z,2.34
2023-01-29T13:38:33.332Z,2.24
2023-01-29T13:41:06.669Z,2.32
2023-01-29T13:43:40.808Z,2.05
2023-01-29T13:46:10.765Z,2.29
2023-01-29T13:48:42.982Z,2.51
2023-01-29T13:51:22.100Z,2.40
2023-01-29T13:53:54.157Z,2.75
2023-01-29T13:56:33.188Z,2.46
2023-01-29T13:59:05.649Z,2.61
2023-01-29T14:01:47.733Z,2.65
2023-01-29T14:04:25.577Z,2.34
2023-01-29T14:07:07.034Z,2.49
2023-01-29T14:09:33.817Z,2.06
2023-01-29T14:12:00.668Z,2.15
2023-01-29T14:14:59.699Z,2.00
2023-01-29T14:17:27.457Z,1.81
2023-01-29T14:20:03.325Z,1.99
2023-01-29T14:22:33.810Z,1.89
2023-01-29T14:25:05.072Z,1.95
2023-01-29T14:27:32.996Z,1.83
2023-01-29T14:30:02.695Z,1.60
2023-01-29T14:32:29.958Z,1.62
2023-01-29T14:35:25.175Z,1.48
2023-01-29T14:37:56.390Z,1.38
2023-01-29T14:40:26.101Z,1.28
2023-01-29T14:42:58.691Z,1.34
2023-01-29T14:45:42.641Z,1.26
2023-01-29T14:48:12.498Z,1.36
2023-01-29T14:50:42.969Z,1.37
2023-01-29T14:53:37.719Z,1.25
2023-01-29T14:56:10.870Z,1.28
2023-01-29T14:58:39.624Z,1.22
2023-01-29T15:01:25.355Z,1.21
2023-01-29T15:04:12.160Z,1.16
2023-01-29T15:07:10.490Z,1.03
2023-01-29T15:10:21.546Z,0.94
2023-01-29T15:13:01.106Z,0.80
2023-01-29T15:15:50.950Z,0.80
2023-01-29T15:18:28.829Z,0.77
2023-01-29T15:21:04.925Z,0.48
2023-01-29T15:23:34.552Z,0.46
2023-01-29T15:26:11.696Z,0.51
2023-01-29T15:28:40.078Z,0.58
2023-01-29T15:31:15.245Z,0.41
2023-01-29T15:33:45.661Z,0.45
2023-01-29T15:36:25.471Z,0.48
2023-01-29T15:39:22.623Z,0.52
2023-01-29T15:41:52.025Z,0.28
2023-01-29T15:44:23.106Z,0.29
2023-01-29T15:46:54.829Z,0.29
2023-01-29T15:49:34.058Z,0.09
2023-01-29T15:52:08.022Z,0.24
2023-01-29T15:54:35.942Z,0.01
2023-01-29T15:57:03.629Z,-0.22
2023-01-29T15:59:34.772Z,-0.15
2023-01-29T16:02:35.689Z,-0.32
2023-01-29T16:05:04.062Z,-0.31
2023-01-29T16:07:32.125Z,-0.45
2023-01-29T16:10:00.404Z,-0.50
2023-01-29T16:12:28.107Z,-0.20
2023-01-29T16:14:56.022Z,-0.17
2023-01-29T16:17:35.756Z,-0.05
2023-01-29T16:20:06.123Z,-0.13
2023-01-29T16:22:37.936Z,-0.34
2023-01-29T16:25:05.538Z,-0.01
2023-01-29T16:27:33.626Z,-0.48
2023-01-29T16:30:02.309Z,-0.28
2023-01-29T16:32:30.711Z,-0.08
2023-01-29T16:35:00.348Z,0.01
2023-01-29T16:37:33.575Z,0.03
2023-01-29T16:40:00.527Z,0.09
2023-01-29T16:42:31.561Z,0.23
2023-01-29T16:45:02.598Z,0.26
2023-01-29T16:47:34.063Z,0.21
2023-01-29T16:50:22.534Z,0.20
2023-01-29T16:53:22.192Z,0.01
2023-01-29T16:55:51.429Z,-0.23
2023-01-29T16:58:30.815Z,-0.13
2023-01-29T17:01:10.810Z,-0.40
2023-01-29T17:03:39.450Z,-0.51
2023-01-29T17:06:11.710Z,-0.43
2023-01-29T17:08:41.271Z,-0.44
2023-01-29T17:11:09.626Z,-0.37
2023-01-29T17:13:45.468Z,-0.42
2023-01-29T17:16:32.587Z,-0.68
2023-01-29T17:19:00.586Z,-0.76
2023-01-29T17:21:29.053Z,-0.79
2023-01-29T17:23:55.824Z,-0.64
2023-01-29T17:26:25.005Z,-1.11
2023-01-29T17:28:53.826Z,-1.22
2023-01-29T17:31:20.643Z,-1.35
2023-01-29T17:33:47.867Z,-1.18
2023-01-29T17:36:16.816Z,-1.39
2023-01-29T17:38:45.017Z,-1.57
2023-01-29T17:41:32.934Z,-1.62
2023-01-29T17:43:59.629Z,-1.52
2023-01-29T17:46:27.591Z,-1.34
2023-01-29T17:48:54.265Z,-1.30
2023-01-29T17:51:21.887Z,-1.09
2023-01-29T17:53:50.058Z,-1.03
2023-01-29T17:56:30.724Z,-0.92
2023-01-29T17:58:57.405Z,-0.88
2023-01-29T18:01:24.181Z,-0.94
2023-01-29T18:03:50.997Z,-1.06
2023-01-29T18:06:27.921Z,-0.98
2023-01-29T18:08:54.675Z,-0.87
2023-01-29T18:11:21.430Z,-0.91
2023-01-29T18:13:48.395Z,-0.74
2023-01-29T18:16:15.633Z,-0.70
2023-01-29T18:18:42.340Z,-0.73
2023-01-29T18:21:09.029Z,-0.65
2023-01-29T18:23:36.257Z,-0.94
2023-01-29T18:26:02.992Z,-0.91
2023-01-29T18:28:29.889Z,-0.84
2023-01-29T18:30:56.952Z,-1.03
2023-01-29T18:33:24.322Z,-1.55
2023-01-29T18:35:55.051Z,-1.84
2023-01-29T18:38:22.166Z,-2.09
2023-01-29T18:40:48.992Z,-2.24
2023-01-29T18:43:21.412Z,-1.94
2023-01-29T18:45:48.894Z,-1.73
2023-01-29T18:48:15.523Z,-1.54
2023-01-29T18:50:42.261Z,-1.26
2023-01-29T18:53:09.028Z,-1.16
2023-01-29T18:55:36.032Z,-1.17
2023-01-29T18:58:28.772Z,-1.14
2023-01-29T19:00:49.528Z,-1.03
2023-01-29T19:03:16.373Z,-1.14
2023-01-29T19:05:43.327Z,-1.51
2023-01-29T19:08:10.273Z,-1.63
2023-01-29T19:10:37.069Z,-1.64
2023-01-29T19:13:05.802Z,-1.37
2023-01-29T19:15:33.744Z,-1.22
2023-01-29T19:18:00.876Z,-1.18
2023-01-29T19:20:28.019Z,-1.40
2023-01-29T19:22:54.709Z,-1.54
2023-01-29T19:25:26.679Z,-1.38
2023-01-29T19:27:53.378Z,-1.28
2023-01-29T19:30:20.165Z,-1.39
2023-01-29T19:32:46.983Z,-1.40
2023-01-29T19:35:13.835Z,-1.42
2023-01-29T19:37:40.474Z,-1.53
2023-01-29T19:40:08.529Z,-1.50
2023-01-29T19:42:37.495Z,-1.67
2023-01-29T19:45:05.633Z,-1.69
2023-01-29T19:47:32.891Z,-1.76
2023-01-29T19:49:59.641Z,-1.66
2023-01-29T19:52:50.189Z,-1.75
2023-01-29T19:55:19.068Z,-1.78
2023-01-29T19:57:46.014Z,-1.66
2023-01-29T20:00:17.711Z,-1.69
2023-01-29T20:02:44.509Z,-1.83
2023-01-29T20:05:13.016Z,-1.83
2023-01-29T20:07:42.614Z,-1.87
2023-01-29T20:10:15.264Z,-1.73
2023-01-29T20:12:44.776Z,-1.78
2023-01-29T20:15:12.558Z,-1.83
2023-01-29T20:17:39.349Z,-1.81
2023-01-29T20:20:06.986Z,-1.88
2023-01-29T20:22:33.700Z,-1.88
2023-01-29T20:25:00.396Z,-1.89
2023-01-29T20:27:27.069Z,-2.14
2023-01-29T20:29:53.732Z,-2.07
2023-01-29T20:32:20.423Z,-2.04
2023-01-29T20:34:51.894Z,-2.17
2023-01-29T20:37:19.417Z,-2.23
2023-01-29T20:39:46.405Z,-2.24
2023-01-29T20:42:13.747Z,-1.94
2023-01-29T20:44:40.515Z,-1.86
2023-01-29T20:47:07.344Z,-1.94
2023-01-29T20:49:34.033Z,-2.25
2023-01-29T20:52:01.798Z,-2.11
2023-01-29T20:54:30.194Z,-2.05
2023-01-29T20:56:57.070Z,-2.18
2023-01-29T20:59:23.808Z,-2.16
2023-01-29T21:01:50.673Z,-2.54
2023-01-29T21:04:18.574Z,-2.36
2023-01-29T21:06:45.218Z,-2.44
2023-01-29T21:09:12.111Z,-2.54
2023-01-29T21:11:38.830Z,-2.46
2023-01-29T21:14:05.538Z,-2.46
2023-01-29T21:16:32.377Z,-2.56
2023-01-29T21:18:59.574Z,-2.84
2023-01-29T21:21:27.148Z,-2.71
2023-01-29T21:23:54.327Z,-2.74
2023-01-29T21:26:23.308Z,-2.63
2023-01-29T21:28:50.404Z,-2.57
2023-01-29T21:31:17.898Z,-2.69
2023-01-29T21:33:44.776Z,-2.51
2023-01-29T21:36:12.296Z,-2.47
2023-01-29T21:38:39.882Z,-2.64
2023-01-29T21:41:09.840Z,-2.73
2023-01-29T21:43:37.153Z,-2.92
2023-01-29T21:46:12.179Z,-3.20
2023-01-29T21:48:40.309Z,-3.24
2023-01-29T21:51:07.557Z,-3.48
2023-01-29T21:53:34.798Z,-3.15
2023-01-29T21:56:03.720Z,-3.18
2023-01-29T21:58:32.529Z,-3.37
2023-01-29T22:01:18.560Z,-3.55
2023-01-29T22:03:47.353Z,-3.61
2023-01-29T22:06:14.981Z,-3.46
2023-01-29T22:08:41.593Z,-3.57
2023-01-29T22:11:09.012Z,-3.72
2023-01-29T22:13:35.752Z,-3.64
2023-01-29T22:16:02.389Z,-3.45
2023-01-29T22:18:30.181Z,-3.57
2023-01-29T22:20:57.582Z,-3.66
2023-01-29T22:23:24.703Z,-3.55
2023-01-29T22:25:51.451Z,-3.62
2023-01-29T22:28:18.838Z,-3.75
2023-01-29T22:30:45.620Z,-3.65
2023-01-29T22:33:12.644Z,-3.75
2023-01-29T22:35:39.314Z,-3.77
2023-01-29T22:38:06.583Z,-3.93
2023-01-29T22:40:33.393Z,-4.05
2023-01-29T22:43:00.114Z,-3.99
2023-01-29T22:45:28.973Z,-4.07
2023-01-29T22:47:56.566Z,-4.08
2023-01-29T22:50:23.201Z,-3.93
2023-01-29T22:52:54.091Z,-3.96
2023-01-29T22:55:21.596Z,-3.95
2023-01-29T22:57:49.780Z,-3.98
2023-01-29T23:00:17.212Z,-3.99
2023-01-29T23:02:46.142Z,-4.15
2023-01-29T23:05:12.909Z,-4.18
2023-01-29T23:07:39.650Z,-4.16
2023-01-29T23:10:07.332Z,-4.29
2023-01-29T23:12:34.380Z,-4.22
2023-01-29T23:15:01.086Z,-4.23
2023-01-29T23:17:29.773Z,-4.29
2023-01-29T23:19:56.445Z,-4.28
2023-01-29T23:22:23.532Z,-4.28
2023-01-29T23:24:50.264Z,-4.29
2023-01-29T23:27:16.947Z,-4.36
2023-01-29T23:29:48.136Z,-4.38
2023-01-29T23:32:18.409Z,-4.36
2023-01-29T23:34:46.412Z,-4.29
2023-01-29T23:37:13.703Z,-4.16
2023-01-29T23:39:40.321Z,-4.21
2023-01-29T23:42:07.042Z,-4.18
2023-01-29T23:44:35.584Z,-4.07
2023-01-29T23:47:02.237Z,-4.11
2023-01-29T23:49:29.478Z,-4.22
2023-01-29T23:51:56.172Z,-4.13
2023-01-29T23:54:23.371Z,-4.21
2023-01-29T23:56:52.653Z,-4.15
2023-01-29T23:59:19.529Z,-4.19
